Time;durP1;ratioP1;P1;durP2;ratioP2;P2;SDS_P1;SDS_P2;PMS_P1;PMS_P2;Temp;Humidity;BMP_temperature;BMP_pressure;BME280_temperature;BME280_humidity;BME280_pressure;Samples;Min_cycle;Max_cycle;Signal;HPM_P1;HPM_P2
2023/07/30 00:00:40;;;;;;;23.70;19.55;;;16.30;94.40;;;;;;5074309;28;20206;-91
2023/07/30 00:03:06;;;;;;;19.67;17.75;;;16.40;94.50;;;;;;5074193;28;20226;-92
2023/07/30 00:05:31;;;;;;;25.05;17.95;;;16.30;94.70;;;;;;5074204;28;20635;-91
2023/07/30 00:07:57;;;;;;;19.65;17.65;;;16.30;94.90;;;;;;5074127;28;20607;-90
2023/07/30 00:10:22;;;;;;;29.77;26.92;;;16.40;95.00;;;;;;5075088;28;20202;-90
2023/07/30 00:12:48;;;;;;;30.58;28.17;;;16.40;95.00;;;;;;5073598;28;20180;-90
2023/07/30 00:15:14;;;;;;;20.75;17.63;;;16.40;95.00;;;;;;5075183;28;20211;-90
2023/07/30 00:17:39;;;;;;;19.15;17.13;;;16.40;95.10;;;;;;5074653;28;20168;-90
2023/07/30 00:20:07;;;;;;;19.85;17.98;;;16.40;95.10;;;;;;5073733;28;20183;-90
2023/07/30 00:22:33;;;;;;;19.23;17.42;;;16.40;95.10;;;;;;5073106;28;20200;-90
2023/07/30 00:24:58;;;;;;;19.67;16.92;;;16.40;95.10;;;;;;5073795;28;20195;-90
2023/07/30 00:27:24;;;;;;;20.55;17.92;;;16.40;95.20;;;;;;5074762;28;20167;-90
2023/07/30 00:29:50;;;;;;;21.02;18.83;;;16.40;95.20;;;;;;5074810;28;20199;-90
2023/07/30 00:32:16;;;;;;;21.38;18.33;;;16.40;95.20;;;;;;5073343;28;20565;-90
2023/07/30 00:34:42;;;;;;;21.48;19.33;;;16.30;95.30;;;;;;5073875;28;20195;-91
2023/07/30 00:37:09;;;;;;;25.08;20.30;;;16.30;95.30;;;;;;5073473;28;20634;-91
2023/07/30 00:39:35;;;;;;;22.17;19.45;;;16.30;95.40;;;;;;5073278;28;20556;-91
2023/07/30 00:42:00;;;;;;;19.75;17.70;;;16.30;95.40;;;;;;5074526;28;20694;-91
2023/07/30 00:44:26;;;;;;;21.77;19.75;;;16.40;95.50;;;;;;5073181;28;20196;-90
2023/07/30 00:46:52;;;;;;;21.38;19.45;;;16.30;95.50;;;;;;5073209;28;20524;-91
2023/07/30 00:49:17;;;;;;;20.48;18.65;;;16.30;95.50;;;;;;5073180;28;20210;-88
2023/07/30 00:51:44;;;;;;;23.80;19.63;;;16.30;95.50;;;;;;5073462;28;20171;-91
2023/07/30 00:54:10;;;;;;;22.00;19.48;;;16.30;95.50;;;;;;5073304;28;20199;-91
2023/07/30 00:56:36;;;;;;;21.02;19.23;;;16.30;95.50;;;;;;5073600;28;20214;-90
2023/07/30 00:59:03;;;;;;;22.50;20.33;;;16.30;95.60;;;;;;5074273;28;20175;-91
2023/07/30 01:01:33;;;;;;;20.80;19.05;;;16.20;95.60;;;;;;5074419;28;20163;-91
2023/07/30 01:03:58;;;;;;;22.60;20.65;;;16.20;95.60;;;;;;5072877;28;20190;-91
2023/07/30 01:06:24;;;;;;;21.70;19.80;;;16.10;95.60;;;;;;5073931;28;20191;-90
2023/07/30 01:08:49;;;;;;;22.08;20.17;;;16.10;95.60;;;;;;5074046;28;20175;-89
2023/07/30 01:11:16;;;;;;;21.27;19.30;;;16.00;95.50;;;;;;5074139;28;20175;-90
2023/07/30 01:13:42;;;;;;;22.00;17.95;;;16.00;95.60;;;;;;5074006;28;20222;-90
2023/07/30 01:16:08;;;;;;;21.30;19.27;;;16.00;95.60;;;;;;5073623;28;20217;-90
2023/07/30 01:18:34;;;;;;;21.33;19.33;;;15.90;95.60;;;;;;5072484;28;20739;-90
2023/07/30 01:21:00;;;;;;;20.42;18.50;;;15.90;95.60;;;;;;5072395;28;20180;-90
2023/07/30 01:23:26;;;;;;;19.10;17.60;;;16.00;95.60;;;;;;5072973;28;20159;-91
2023/07/30 01:26:20;;;;;;;19.63;18.15;;;15.90;95.60;;;;;;5072312;28;20179;-90
2023/07/30 01:28:50;;;;;;;19.30;17.58;;;15.80;95.60;;;;;;5069403;28;20184;-90
2023/07/30 01:31:17;;;;;;;20.10;18.13;;;15.80;95.60;;;;;;5073908;28;20523;-89
2023/07/30 01:33:49;;;;;;;21.20;19.35;;;15.80;95.60;;;;;;5072335;28;20293;-90
2023/07/30 01:36:16;;;;;;;20.90;19.10;;;15.80;95.60;;;;;;5072367;28;20229;-90
2023/07/30 01:38:43;;;;;;;20.88;19.10;;;15.80;95.70;;;;;;5072288;28;20182;-90
2023/07/30 01:41:09;;;;;;;21.10;19.08;;;15.70;95.70;;;;;;5072232;28;20179;-90
2023/07/30 01:43:34;;;;;;;20.70;19.08;;;15.70;95.70;;;;;;5072081;28;20179;-90
2023/07/30 01:46:00;;;;;;;20.20;18.63;;;15.70;95.70;;;;;;5073007;28;20537;-90
2023/07/30 01:48:27;;;;;;;20.92;18.67;;;15.70;95.70;;;;;;5073535;28;20198;-90
2023/07/30 01:50:52;;;;;;;20.63;18.85;;;15.70;95.70;;;;;;5072090;28;20175;-90
2023/07/30 01:53:18;;;;;;;21.20;19.10;;;15.80;95.80;;;;;;5072078;28;20182;-90
2023/07/30 01:55:45;;;;;;;21.05;19.25;;;15.80;95.80;;;;;;5073231;28;20201;-90
2023/07/30 01:58:11;;;;;;;20.70;18.48;;;15.90;95.80;;;;;;5071957;28;20168;-90
2023/07/30 02:00:37;;;;;;;20.13;18.50;;;15.90;95.80;;;;;;5072142;28;20175;-90
2023/07/30 02:03:03;;;;;;;19.85;18.15;;;15.90;95.80;;;;;;5073099;28;20256;-90
2023/07/30 02:05:28;;;;;;;20.13;18.15;;;15.90;95.80;;;;;;5071876;28;20199;-89
2023/07/30 02:07:54;;;;;;;20.98;19.08;;;15.90;95.80;;;;;;5073378;28;20202;-90
2023/07/30 02:10:19;;;;;;;20.42;18.33;;;15.90;95.70;;;;;;5073078;28;20171;-90
2023/07/30 02:12:45;;;;;;;22.20;20.13;;;15.90;95.70;;;;;;5073220;28;20237;-89
2023/07/30 02:15:10;;;;;;;21.35;19.55;;;15.90;95.70;;;;;;5071760;28;20577;-89
2023/07/30 02:17:36;;;;;;;22.38;20.45;;;15.90;95.70;;;;;;5071856;28;20657;-90
2023/07/30 02:20:02;;;;;;;22.60;20.65;;;15.80;95.70;;;;;;5073545;28;20178;-90
2023/07/30 02:22:28;;;;;;;21.90;19.92;;;15.80;95.60;;;;;;5071821;28;20208;-90
2023/07/30 02:24:53;;;;;;;23.15;20.23;;;15.80;95.60;;;;;;5071775;28;20228;-89
2023/07/30 02:27:19;;;;;;;23.10;21.15;;;15.80;95.60;;;;;;5072575;28;20534;-90
2023/07/30 02:29:44;;;;;;;22.13;20.23;;;15.70;95.70;;;;;;5072846;28;20175;-90
2023/07/30 02:32:10;;;;;;;22.35;20.48;;;15.70;95.70;;;;;;5072914;28;20176;-90
2023/07/30 02:34:35;;;;;;;25.48;22.88;;;15.70;95.70;;;;;;5073892;28;20273;-90
2023/07/30 02:37:01;;;;;;;34.75;31.67;;;15.60;95.60;;;;;;5075617;28;20627;-90
2023/07/30 02:39:26;;;;;;;35.80;33.15;;;15.60;95.70;;;;;;5075440;28;20175;-89
2023/07/30 02:41:52;;;;;;;37.78;34.85;;;15.50;95.70;;;;;;5076529;28;20171;-90
2023/07/30 02:44:17;;;;;;;22.00;19.75;;;15.50;95.70;;;;;;5075943;28;20194;-90
2023/07/30 02:46:43;;;;;;;28.05;21.13;;;15.50;95.70;;;;;;5075586;28;20271;-90
2023/07/30 02:49:08;;;;;;;36.22;32.60;;;15.40;95.70;;;;;;5075175;28;20258;-90
2023/07/30 02:51:34;;;;;;;35.92;33.03;;;15.30;95.70;;;;;;5076697;28;20235;-90
2023/07/30 02:54:04;;;;;;;39.55;36.00;;;15.30;95.70;;;;;;5076629;28;20248;-90
2023/07/30 02:56:30;;;;;;;25.48;21.38;;;15.30;95.80;;;;;;5075302;28;20206;-90
2023/07/30 02:58:56;;;;;;;24.88;22.13;;;15.30;95.70;;;;;;5076455;28;20172;-90
2023/07/30 03:01:22;;;;;;;24.00;21.90;;;15.30;95.70;;;;;;5075410;28;20174;-89
2023/07/30 03:03:47;;;;;;;24.25;22.05;;;15.30;95.80;;;;;;5076550;28;20717;-89
2023/07/30 03:06:14;;;;;;;24.38;21.95;;;15.30;95.80;;;;;;5075199;28;20180;-90
2023/07/30 03:08:39;;;;;;;27.67;22.23;;;15.20;95.80;;;;;;5075441;28;20180;-90
2023/07/30 03:11:05;;;;;;;24.45;22.08;;;15.20;95.80;;;;;;5076346;28;20598;-90
2023/07/30 03:13:30;;;;;;;27.30;22.48;;;15.30;95.80;;;;;;5076170;28;20175;-89
2023/07/30 03:15:56;;;;;;;24.02;21.45;;;15.20;95.80;;;;;;5074941;28;20674;-89
2023/07/30 03:18:21;;;;;;;24.67;22.17;;;15.20;95.80;;;;;;5074931;28;20627;-90
2023/07/30 03:20:47;;;;;;;24.58;21.90;;;15.20;95.80;;;;;;5076138;28;20225;-90
2023/07/30 03:23:12;;;;;;;25.10;22.40;;;15.20;95.80;;;;;;5076522;28;20223;-90
2023/07/30 03:25:39;;;;;;;24.08;21.83;;;15.20;95.80;;;;;;5075947;28;20278;-89
2023/07/30 03:28:05;;;;;;;28.17;23.88;;;15.20;95.80;;;;;;5074837;28;20187;-90
2023/07/30 03:30:30;;;;;;;24.98;21.85;;;15.10;95.80;;;;;;5075706;28;20178;-89
2023/07/30 03:32:56;;;;;;;26.25;23.42;;;15.20;95.80;;;;;;5075121;28;20519;-90
2023/07/30 03:35:21;;;;;;;25.60;23.30;;;15.20;95.80;;;;;;5075562;28;20199;-89
2023/07/30 03:37:47;;;;;;;26.02;23.52;;;15.20;95.80;;;;;;5074430;28;20195;-89
2023/07/30 03:40:12;;;;;;;24.67;22.33;;;15.20;95.80;;;;;;5074699;28;20251;-90
2023/07/30 03:42:38;;;;;;;25.15;22.45;;;15.20;95.80;;;;;;5074330;28;20729;-89
2023/07/30 03:45:04;;;;;;;27.73;22.50;;;15.20;95.80;;;;;;5075612;28;20199;-89
2023/07/30 03:47:30;;;;;;;25.23;22.55;;;15.20;95.80;;;;;;5074736;28;20186;-89
2023/07/30 03:49:55;;;;;;;30.15;22.90;;;15.20;95.80;;;;;;5074161;28;20558;-90
2023/07/30 03:52:21;;;;;;;25.25;22.15;;;15.20;95.80;;;;;;5075649;28;20647;-89
2023/07/30 03:54:46;;;;;;;25.80;23.42;;;15.20;95.80;;;;;;5075142;28;20203;-89
2023/07/30 03:57:12;;;;;;;26.15;23.38;;;15.20;95.80;;;;;;5075277;28;20171;-89
2023/07/30 03:59:37;;;;;;;31.33;23.00;;;15.20;95.70;;;;;;5074590;28;20269;-89
2023/07/30 04:02:04;;;;;;;32.85;23.33;;;15.20;95.70;;;;;;5074384;28;20175;-90
2023/07/30 04:04:29;;;;;;;24.85;22.30;;;15.20;95.70;;;;;;5073917;28;20199;-89
2023/07/30 04:06:55;;;;;;;24.95;21.92;;;15.30;95.70;;;;;;5073837;28;20221;-90
2023/07/30 04:09:20;;;;;;;33.20;22.90;;;15.30;95.70;;;;;;5073908;28;20179;-89
2023/07/30 04:11:46;;;;;;;27.88;23.92;;;15.30;95.60;;;;;;5074213;28;20210;-89
2023/07/30 04:14:11;;;;;;;25.33;22.65;;;15.30;95.60;;;;;;5073694;28;20200;-90
2023/07/30 04:16:37;;;;;;;24.40;21.83;;;15.30;95.60;;;;;;5073622;28;20203;-89
2023/07/30 04:19:03;;;;;;;34.90;23.73;;;15.30;95.60;;;;;;5073616;28;20206;-89
2023/07/30 04:21:28;;;;;;;30.30;22.98;;;15.40;95.60;;;;;;5073681;28;20191;-89
2023/07/30 04:23:54;;;;;;;27.70;22.33;;;15.40;95.60;;;;;;5074702;28;20382;-88
2023/07/30 04:26:19;;;;;;;25.77;23.02;;;15.40;95.50;;;;;;5073826;28;20209;-89
2023/07/30 04:28:45;;;;;;;26.33;22.98;;;15.50;95.50;;;;;;5073412;28;20229;-89
2023/07/30 04:31:10;;;;;;;27.55;21.98;;;15.50;95.50;;;;;;5074431;28;20665;-89
2023/07/30 04:33:36;;;;;;;24.60;21.92;;;15.50;95.50;;;;;;5074525;28;20171;-89
2023/07/30 04:36:02;;;;;;;27.95;22.98;;;15.60;95.40;;;;;;5073781;28;20231;-88
2023/07/30 04:38:27;;;;;;;35.15;22.92;;;15.60;95.40;;;;;;5073267;28;20182;-89
2023/07/30 04:40:53;;;;;;;24.95;22.85;;;15.60;95.40;;;;;;5073230;28;20176;-88
2023/07/30 04:43:18;;;;;;;25.80;23.25;;;15.50;95.30;;;;;;5073472;28;20217;-88
2023/07/30 04:45:44;;;;;;;26.92;22.60;;;15.60;95.40;;;;;;5073431;28;20179;-89
2023/07/30 04:48:09;;;;;;;22.92;20.73;;;15.60;95.30;;;;;;5073032;28;20207;-89
2023/07/30 04:50:35;;;;;;;23.02;20.35;;;15.70;95.20;;;;;;5073315;28;20730;-89
2023/07/30 04:53:01;;;;;;;25.50;21.95;;;15.60;95.20;;;;;;5073001;28;20233;-89
2023/07/30 04:55:26;;;;;;;25.08;22.45;;;15.60;95.00;;;;;;5072817;28;20212;-88
2023/07/30 04:57:52;;;;;;;26.00;22.25;;;15.70;95.00;;;;;;5071999;28;20655;-88
2023/07/30 05:00:17;;;;;;;32.35;22.75;;;15.70;95.00;;;;;;5073657;28;20265;-88
2023/07/30 05:02:43;;;;;;;25.70;23.17;;;15.70;95.00;;;;;;5074077;28;20188;-89
2023/07/30 05:05:08;;;;;;;24.77;22.58;;;15.70;94.90;;;;;;5073876;28;20191;-89
2023/07/30 05:07:34;;;;;;;27.70;24.02;;;15.70;94.70;;;;;;5072732;28;20675;-88
2023/07/30 05:10:00;;;;;;;25.23;22.50;;;15.70;94.70;;;;;;5073884;28;20178;-89
2023/07/30 05:12:25;;;;;;;24.75;22.20;;;15.80;94.60;;;;;;5072545;28;20697;-88
2023/07/30 05:14:51;;;;;;;25.50;23.05;;;15.80;94.60;;;;;;5072339;28;20199;-88
2023/07/30 05:17:17;;;;;;;27.50;22.88;;;15.80;94.40;;;;;;5073750;28;20174;-88
2023/07/30 05:19:42;;;;;;;31.40;22.83;;;15.80;94.50;;;;;;5073672;28;20183;-88
2023/07/30 05:22:09;;;;;;;26.20;23.08;;;15.80;94.50;;;;;;5073469;28;20262;-88
2023/07/30 05:24:36;;;;;;;30.55;23.52;;;15.80;94.40;;;;;;5072344;28;20191;-88
2023/07/30 05:27:02;;;;;;;33.60;23.67;;;16.00;94.50;;;;;;5072333;28;20171;-91
2023/07/30 05:29:27;;;;;;;26.85;23.13;;;16.00;94.50;;;;;;5073146;28;20263;-89
2023/07/30 05:31:53;;;;;;;34.63;23.33;;;16.00;94.30;;;;;;5072281;28;20293;-89
2023/07/30 05:34:18;;;;;;;25.45;22.90;;;16.10;94.50;;;;;;5072382;28;20639;-90
2023/07/30 05:36:44;;;;;;;29.13;23.05;;;16.20;94.40;;;;;;5072052;28;20211;-90
2023/07/30 05:39:09;;;;;;;28.60;23.95;;;16.20;94.40;;;;;;5072198;28;20176;-90
2023/07/30 05:41:35;;;;;;;27.30;23.50;;;16.20;94.50;;;;;;5072176;28;20186;-90
2023/07/30 05:44:00;;;;;;;28.00;25.10;;;16.20;94.40;;;;;;5072006;28;20198;-90
2023/07/30 05:46:26;;;;;;;33.35;25.50;;;16.10;94.20;;;;;;5072098;28;20168;-90
2023/07/30 05:48:51;;;;;;;30.17;25.42;;;16.10;94.20;;;;;;5073260;28;20180;-90
2023/07/30 05:51:17;;;;;;;35.67;25.17;;;16.10;94.10;;;;;;5072112;28;20554;-90
2023/07/30 05:53:42;;;;;;;31.77;25.55;;;16.00;94.20;;;;;;5072165;28;20571;-90
2023/07/30 05:56:08;;;;;;;29.77;24.42;;;16.00;94.20;;;;;;5071974;28;20199;-89
2023/07/30 05:58:33;;;;;;;33.00;24.20;;;16.00;94.20;;;;;;5072256;28;20646;-90
2023/07/30 06:00:59;;;;;;;29.20;24.27;;;16.00;94.30;;;;;;5072039;28;20192;-90
2023/07/30 06:03:25;;;;;;;32.95;23.95;;;16.10;94.40;;;;;;5073071;28;20171;-90
2023/07/30 06:05:50;;;;;;;33.78;25.13;;;16.20;94.40;;;;;;5072346;28;20175;-90
2023/07/30 06:08:16;;;;;;;31.88;26.15;;;16.20;94.40;;;;;;5071813;28;20214;-90
2023/07/30 06:10:41;;;;;;;35.38;25.88;;;16.40;94.50;;;;;;5077147;28;20175;-89
2023/07/30 06:13:07;;;;;;;37.78;24.27;;;16.40;94.40;;;;;;5078477;28;20182;-89
2023/07/30 06:15:33;;;;;;;32.67;23.90;;;16.30;94.30;;;;;;5078279;28;20252;-90
2023/07/30 06:17:58;;;;;;;44.53;25.73;;;16.30;94.40;;;;;;5078493;28;20650;-89
2023/07/30 06:20:24;;;;;;;37.92;24.88;;;16.30;94.30;;;;;;5078359;28;20183;-89
2023/07/30 06:22:49;;;;;;;32.97;23.80;;;16.40;94.50;;;;;;5078342;28;20228;-89
2023/07/30 06:25:15;;;;;;;30.02;23.95;;;16.60;94.50;;;;;;5078335;28;20609;-89
2023/07/30 06:27:40;;;;;;;28.15;24.83;;;16.60;94.50;;;;;;5078432;28;20689;-89
2023/07/30 06:30:06;;;;;;;33.83;25.33;;;16.60;94.20;;;;;;5078375;28;20313;-89
2023/07/30 06:32:32;;;;;;;35.83;26.15;;;16.60;94.10;;;;;;5079194;28;20212;-89
2023/07/30 06:34:58;;;;;;;27.75;24.73;;;16.60;94.00;;;;;;5078101;28;20294;-90
2023/07/30 06:37:23;;;;;;;40.20;25.52;;;16.70;94.00;;;;;;5078316;28;20651;-90
2023/07/30 06:39:49;;;;;;;35.42;24.70;;;16.80;94.20;;;;;;5078354;28;20167;-89
2023/07/30 06:42:14;;;;;;;42.08;25.35;;;16.90;94.20;;;;;;5079512;28;20179;-90
2023/07/30 06:44:40;;;;;;;39.22;28.25;;;17.10;94.10;;;;;;5079069;28;20708;-91
2023/07/30 06:47:05;;;;;;;34.40;26.73;;;17.00;93.80;;;;;;5078209;28;20175;-89
2023/07/30 06:49:33;;;;;;;45.85;29.73;;;17.20;94.00;;;;;;5078302;28;20202;-90
2023/07/30 06:51:59;;;;;;;39.13;30.10;;;17.10;93.40;;;;;;5078220;28;20202;-89
2023/07/30 06:54:24;;;;;;;44.88;29.70;;;17.00;93.20;;;;;;5077936;28;20230;-89
2023/07/30 06:56:50;;;;;;;37.28;30.48;;;17.00;93.60;;;;;;5077987;28;20289;-87
2023/07/30 06:59:16;;;;;;;32.10;28.77;;;17.10;93.60;;;;;;5078429;28;20171;-88
2023/07/30 07:01:41;;;;;;;41.58;29.55;;;17.20;93.60;;;;;;5078136;28;20171;-88
2023/07/30 07:04:09;;;;;;;38.15;30.33;;;17.10;93.40;;;;;;5077939;28;20674;-87
2023/07/30 07:06:35;;;;;;;44.63;33.13;;;17.10;93.30;;;;;;5077967;28;20186;-87
2023/07/30 07:09:00;;;;;;;37.42;28.83;;;17.20;93.20;;;;;;5077963;28;20175;-87
2023/07/30 07:11:26;;;;;;;46.15;41.40;;;17.30;93.40;;;;;;5078007;28;20176;-87
2023/07/30 07:13:51;;;;;;;45.30;40.42;;;17.30;93.10;;;;;;5079087;28;20207;-87
2023/07/30 07:16:17;;;;;;;45.95;39.97;;;17.20;93.10;;;;;;5079062;28;20195;-88
2023/07/30 07:18:42;;;;;;;38.20;26.63;;;17.30;92.80;;;;;;5077937;28;20217;-88
2023/07/30 07:21:08;;;;;;;33.72;26.42;;;17.30;92.80;;;;;;5075506;28;20187;-87
2023/07/30 07:23:33;;;;;;;44.05;38.95;;;17.30;92.80;;;;;;5076022;28;20692;-87
2023/07/30 07:25:59;;;;;;;46.60;41.70;;;17.20;92.40;;;;;;5075834;28;20720;-88
2023/07/30 07:28:25;;;;;;;43.55;29.58;;;17.30;92.70;;;;;;5076103;28;20179;-88
2023/07/30 07:30:50;;;;;;;39.08;28.27;;;17.50;92.60;;;;;;5074570;28;20206;-88
2023/07/30 07:33:16;;;;;;;37.97;29.35;;;17.60;92.50;;;;;;5074924;28;20186;-88
2023/07/30 07:35:41;;;;;;;47.85;41.28;;;17.40;92.10;;;;;;5075562;28;20241;-88
2023/07/30 07:38:07;;;;;;;45.53;41.03;;;17.40;92.10;;;;;;5074415;28;20550;-87
2023/07/30 07:40:39;;;;;;;34.95;28.08;;;17.70;92.60;;;;;;5074404;28;20175;-87
2023/07/30 07:43:05;;;;;;;35.00;26.27;;;17.70;92.40;;;;;;5074366;28;20172;-88
2023/07/30 07:45:30;;;;;;;38.97;27.52;;;18.10;92.60;;;;;;5074326;28;20329;-88
2023/07/30 07:47:56;;;;;;;41.35;28.65;;;18.20;92.20;;;;;;5074490;28;20187;-88
2023/07/30 07:50:21;;;;;;;43.50;29.20;;;18.10;91.80;;;;;;5074314;28;20178;-88
2023/07/30 07:52:47;;;;;;;36.03;28.85;;;18.10;91.20;;;;;;5075379;28;20176;-87
2023/07/30 07:55:12;;;;;;;38.35;27.88;;;17.90;91.40;;;;;;5074104;28;20207;-88
2023/07/30 07:57:38;;;;;;;31.60;28.00;;;18.00;91.20;;;;;;5074067;28;20175;-88
2023/07/30 08:00:05;;;;;;;38.90;28.10;;;18.00;91.30;;;;;;5074034;28;20179;-88
2023/07/30 08:02:30;;;;;;;46.55;27.90;;;17.90;91.20;;;;;;5074030;28;20317;-88
2023/07/30 08:04:56;;;;;;;37.92;27.58;;;18.00;91.30;;;;;;5074001;28;20725;-88
2023/07/30 08:07:21;;;;;;;35.05;26.85;;;18.00;91.20;;;;;;5073915;28;20175;-88
2023/07/30 08:09:48;;;;;;;34.85;27.17;;;18.10;91.20;;;;;;5075002;28;20244;-90
2023/07/30 08:12:14;;;;;;;31.02;26.88;;;18.00;90.60;;;;;;5075237;28;20175;-90
2023/07/30 08:14:39;;;;;;;32.28;26.42;;;18.20;90.90;;;;;;5073618;28;20199;-91
2023/07/30 08:17:05;;;;;;;37.45;32.13;;;18.10;90.60;;;;;;5073685;28;20178;-89
2023/07/30 08:19:30;;;;;;;41.38;29.10;;;18.20;90.90;;;;;;5073585;28;20171;-89
2023/07/30 08:21:58;;;;;;;33.60;26.92;;;18.30;90.80;;;;;;5073793;28;20180;-89
2023/07/30 08:24:23;;;;;;;31.75;24.50;;;18.10;89.90;;;;;;5073886;28;20622;-90
2023/07/30 08:26:49;;;;;;;33.67;27.95;;;18.20;89.90;;;;;;5073628;28;20210;-90
2023/07/30 08:29:14;;;;;;;26.17;23.35;;;18.40;90.10;;;;;;5073444;28;20191;-90
2023/07/30 08:31:41;;;;;;;28.38;23.48;;;18.60;89.90;;;;;;5073913;28;20286;-90
2023/07/30 08:34:07;;;;;;;33.78;24.00;;;18.60;89.60;;;;;;5073495;28;20614;-90
2023/07/30 08:36:32;;;;;;;25.83;23.13;;;18.60;89.20;;;;;;5073319;28;20338;-90
2023/07/30 08:38:58;;;;;;;33.00;25.38;;;18.50;88.30;;;;;;5073271;28;20209;-91
2023/07/30 08:41:24;;;;;;;35.60;24.10;;;18.40;88.50;;;;;;5073294;28;20183;-89
2023/07/30 08:43:51;;;;;;;27.10;22.95;;;18.40;88.50;;;;;;5073100;28;20223;-90
2023/07/30 08:46:17;;;;;;;37.40;24.85;;;18.50;89.20;;;;;;5073312;28;20186;-90
2023/07/30 08:48:43;;;;;;;33.25;24.65;;;18.40;88.70;;;;;;5073189;28;20266;-91
2023/07/30 08:51:09;;;;;;;26.75;23.52;;;18.50;89.00;;;;;;5073171;28;20179;-89
2023/07/30 08:53:35;;;;;;;31.17;24.75;;;18.50;88.60;;;;;;5072992;28;20182;-89
2023/07/30 08:56:02;;;;;;;36.72;26.40;;;18.60;88.80;;;;;;5073399;28;20294;-90
2023/07/30 08:58:29;;;;;;;34.28;26.23;;;18.50;87.60;;;;;;5072921;28;20175;-89
2023/07/30 09:00:56;;;;;;;33.28;25.77;;;18.70;88.40;;;;;;5072884;28;20171;-89
2023/07/30 09:03:24;;;;;;;38.42;27.25;;;18.60;88.30;;;;;;5072755;28;20203;-89
2023/07/30 09:05:50;;;;;;;29.17;26.10;;;18.60;88.50;;;;;;5073414;28;20262;-91
2023/07/30 09:08:17;;;;;;;30.98;26.33;;;18.30;87.90;;;;;;5073908;28;20230;-91
2023/07/30 09:10:43;;;;;;;32.63;26.77;;;18.20;87.70;;;;;;5073023;28;20647;-89
2023/07/30 09:13:08;;;;;;;40.28;33.17;;;18.20;87.90;;;;;;5073022;28;20175;-89
2023/07/30 09:15:39;;;;;;;30.02;26.95;;;18.20;88.10;;;;;;5073731;28;20199;-88
2023/07/30 09:18:06;;;;;;;33.15;26.23;;;18.20;88.10;;;;;;5072630;28;20224;-89
2023/07/30 09:20:39;;;;;;;27.83;23.70;;;18.50;88.50;;;;;;5072494;28;20206;-89
2023/07/30 09:23:08;;;;;;;35.55;24.55;;;18.40;86.70;;;;;;5074032;28;20166;-88
2023/07/30 09:25:35;;;;;;;28.85;25.77;;;18.50;87.00;;;;;;5072839;28;20191;-89
2023/07/30 09:28:01;;;;;;;45.17;35.42;;;18.40;86.30;;;;;;5072505;28;20535;-89
2023/07/30 09:30:29;;;;;;;37.25;33.53;;;18.40;86.70;;;;;;5072694;28;20175;-89
2023/07/30 09:32:57;;;;;;;42.00;35.45;;;18.50;86.70;;;;;;5072554;28;20602;-88
2023/07/30 09:35:24;;;;;;;42.65;26.73;;;18.60;87.00;;;;;;5072256;28;20222;-88
2023/07/30 09:37:57;;;;;;;36.00;26.25;;;18.60;86.80;;;;;;5073847;28;20516;-88
2023/07/30 09:40:34;;;;;;;28.45;25.48;;;18.60;86.80;;;;;;5072205;28;20255;-89
2023/07/30 09:43:01;;;;;;;28.73;24.30;;;18.70;87.30;;;;;;5072302;28;20515;-89
2023/07/30 09:45:27;;;;;;;25.95;23.23;;;18.60;86.50;;;;;;5071590;28;20199;-88
2023/07/30 09:47:56;;;;;;;36.90;24.90;;;18.60;86.40;;;;;;5073388;28;20232;-88
2023/07/30 09:50:22;;;;;;;27.63;22.65;;;18.60;85.90;;;;;;5073679;28;20168;-89
2023/07/30 09:52:49;;;;;;;27.58;20.80;;;18.70;86.30;;;;;;5072105;28;20568;-88
2023/07/30 09:55:15;;;;;;;25.88;21.02;;;18.60;85.30;;;;;;5071979;28;20252;-88
2023/07/30 09:57:41;;;;;;;23.65;21.33;;;18.70;85.50;;;;;;5073282;28;20168;-88
2023/07/30 10:00:11;;;;;;;26.55;19.98;;;18.80;85.40;;;;;;5071964;28;20180;-89
2023/07/30 10:02:39;;;;;;;22.27;18.80;;;18.80;85.10;;;;;;5073197;28;20175;-88
2023/07/30 10:05:11;;;;;;;31.10;27.50;;;18.80;84.80;;;;;;5071942;28;20671;-89
2023/07/30 10:07:42;;;;;;;30.98;26.73;;;18.70;84.50;;;;;;5072087;28;20254;-88
2023/07/30 10:10:08;;;;;;;26.30;23.80;;;18.80;85.10;;;;;;5073162;28;20174;-90
2023/07/30 10:12:37;;;;;;;19.80;17.70;;;18.80;84.80;;;;;;5072314;28;20225;-89
2023/07/30 10:15:03;;;;;;;20.05;18.23;;;18.90;83.20;;;;;;5072160;28;20329;-89
2023/07/30 10:17:28;;;;;;;36.88;33.20;;;19.00;81.70;;;;;;5072165;28;20197;-90
2023/07/30 10:19:54;;;;;;;27.10;24.65;;;19.20;80.40;;;;;;5072289;28;20175;-89
2023/07/30 10:22:25;;;;;;;28.00;25.70;;;19.20;79.30;;;;;;5071950;28;20203;-89
2023/07/30 10:25:03;;;;;;;25.98;17.17;;;19.40;79.20;;;;;;5073147;28;20566;-89
2023/07/30 10:27:40;;;;;;;24.10;18.98;;;19.70;78.00;;;;;;5072099;28;20208;-90
2023/07/30 10:30:14;;;;;;;20.75;18.60;;;19.90;77.80;;;;;;5071865;28;20629;-89
2023/07/30 10:33:01;;;;;;;21.63;19.08;;;19.90;78.10;;;;;;5071853;28;20202;-89
2023/07/30 10:35:41;;;;;;;22.83;20.60;;;19.70;78.70;;;;;;5071330;28;20384;-88
2023/07/30 10:38:20;;;;;;;21.88;19.48;;;19.40;77.80;;;;;;5073041;28;20170;-88
2023/07/30 10:41:08;;;;;;;25.42;20.80;;;19.20;78.00;;;;;;5073071;28;20175;-87
2023/07/30 10:43:39;;;;;;;23.75;21.45;;;19.20;78.20;;;;;;5071665;28;20225;-88
2023/07/30 10:46:05;;;;;;;20.38;18.67;;;19.10;77.80;;;;;;5071917;28;20183;-90
2023/07/30 10:48:35;;;;;;;21.52;19.38;;;19.00;76.30;;;;;;5072668;28;20171;-90
2023/07/30 10:51:04;;;;;;;30.48;28.13;;;19.10;76.20;;;;;;5073736;28;20274;-90
2023/07/30 10:53:29;;;;;;;30.42;27.60;;;19.10;75.80;;;;;;5072812;28;20237;-91
2023/07/30 10:56:00;;;;;;;22.63;19.05;;;19.10;76.00;;;;;;5072891;28;20203;-88
2023/07/30 10:58:26;;;;;;;25.40;22.70;;;19.20;76.00;;;;;;5075688;28;20162;-89
2023/07/30 11:00:52;;;;;;;20.80;18.73;;;19.20;75.90;;;;;;5075271;28;20183;-89
2023/07/30 11:03:21;;;;;;;21.70;19.48;;;19.30;76.00;;;;;;5075732;28;20168;-89
2023/07/30 11:05:48;;;;;;;20.23;18.25;;;19.40;75.30;;;;;;5076000;28;20210;-89
2023/07/30 11:08:14;;;;;;;19.50;17.23;;;19.20;75.40;;;;;;5076567;28;20171;-89
2023/07/30 11:10:49;;;;;;;19.30;17.40;;;19.20;76.60;;;;;;5075327;28;20175;-89
2023/07/30 11:13:14;;;;;;;20.77;18.50;;;19.10;76.20;;;;;;5076814;28;20182;-89
2023/07/30 11:15:43;;;;;;;19.45;17.65;;;19.00;75.50;;;;;;5074782;28;20199;-89
2023/07/30 11:18:10;;;;;;;22.88;19.23;;;19.20;75.40;;;;;;5076237;28;20225;-88
2023/07/30 11:20:36;;;;;;;19.15;17.35;;;19.40;75.30;;;;;;5076330;28;20242;-89
2023/07/30 11:23:02;;;;;;;19.55;17.48;;;19.60;75.60;;;;;;5074961;28;20164;-89
2023/07/30 11:25:29;;;;;;;19.52;17.63;;;19.90;76.00;;;;;;5075092;28;20229;-87
2023/07/30 11:27:54;;;;;;;23.70;17.80;;;20.10;73.70;;;;;;5074615;28;20262;-87
2023/07/30 11:30:20;;;;;;;20.42;18.23;;;20.20;74.10;;;;;;5075839;28;20175;-87
2023/07/30 11:32:45;;;;;;;20.30;18.20;;;20.20;73.40;;;;;;5074636;28;20181;-87
2023/07/30 11:35:14;;;;;;;20.92;18.77;;;20.40;73.30;;;;;;5074366;28;20207;-87
2023/07/30 11:37:42;;;;;;;21.15;19.10;;;20.30;73.90;;;;;;5074475;28;20250;-86
2023/07/30 11:40:09;;;;;;;20.45;18.15;;;20.30;74.10;;;;;;5075664;28;20195;-85
2023/07/30 11:42:36;;;;;;;21.02;18.98;;;20.40;75.70;;;;;;5075476;28;20203;-86
2023/07/30 11:45:21;;;;;;;21.00;18.85;;;20.50;75.20;;;;;;5074332;28;20727;-87
2023/07/30 11:47:48;;;;;;;20.27;18.00;;;20.40;73.70;;;;;;5075430;28;20206;-86
2023/07/30 11:50:13;;;;;;;20.85;18.73;;;20.50;75.10;;;;;;5074295;28;20176;-86
2023/07/30 11:52:56;;;;;;;22.80;20.20;;;20.20;73.70;;;;;;5074266;28;20229;-86
2023/07/30 11:55:23;;;;;;;20.17;18.15;;;20.10;73.00;;;;;;5075227;28;20744;-86
2023/07/30 11:57:49;;;;;;;20.30;18.30;;;19.90;74.00;;;;;;5074133;28;20176;-86
2023/07/30 12:00:15;;;;;;;23.83;18.02;;;20.00;73.60;;;;;;5075620;28;20171;-86
2023/07/30 12:02:41;;;;;;;25.90;23.38;;;20.10;74.40;;;;;;5074294;28;20179;-86
2023/07/30 12:05:10;;;;;;;26.50;24.35;;;20.10;73.30;;;;;;5073966;28;20218;-86
2023/07/30 12:07:41;;;;;;;28.83;26.27;;;19.90;73.40;;;;;;5073520;28;20258;-86
2023/07/30 12:10:13;;;;;;;20.63;18.63;;;20.00;74.50;;;;;;5073826;28;20649;-86
2023/07/30 12:12:52;;;;;;;21.25;18.30;;;19.90;72.90;;;;;;5073850;28;20171;-86
2023/07/30 12:15:18;;;;;;;27.38;25.15;;;19.80;74.10;;;;;;5073731;28;20719;-86
2023/07/30 12:17:44;;;;;;;31.05;28.23;;;19.70;73.80;;;;;;5073762;28;20258;-88
2023/07/30 12:20:11;;;;;;;20.05;17.98;;;19.60;74.50;;;;;;5073890;28;20167;-86
2023/07/30 12:22:38;;;;;;;24.42;18.38;;;19.50;75.00;;;;;;5073630;28;20195;-87
2023/07/30 12:25:04;;;;;;;18.52;16.75;;;19.30;75.40;;;;;;5074904;28;20191;-87